AirNav   Duncan Aviation - Near you to keep you flying
 
 1055 users online  

5KS1 Threshing Bee Airport
Mc Louth, Kansas, USA

GOING TO MC LOUTH?


FAA INFORMATION EFFECTIVE 30 DECEMBER 2021

Location

FAA Identifier: 5KS1
Lat/Long: 39-11-37.8000N 095-12-58.8000W
39-11.630000N 095-12.980000W
39.1938333,-95.2163333
(estimated)
Elevation: 1150 ft. / 351 m (estimated)
Variation: 05E (1985)
From city: 1 mile SW of MC LOUTH, KS
Time zone: UTC -6 (UTC -5 during Daylight Saving Time)
Zip code: 66054

Airport Operations

Airport use: Private use. Permission required prior to landing
Activation date: 01/1971
Control tower: no
ARTCC: KANSAS CITY CENTER
FSS: WICHITA FLIGHT SERVICE STATION
FOR TOLL FREE IFR FILE/CLOSE FP ONLY: 1-800-322-2377.
Attendance: UNATNDD
FOR SERVICE CALL 913-796-6562.
Wind indicator: yes
Segmented circle: no

Airport Communications

WX ASOS at LWC (11 nm S): 121.225 (785-749-1309)

Nearby radio navigation aids

VOR radial/distance  VOR name  Freq  Var
TOPr073/15.9TOPEKA VORTAC117.8005E
MCIr251/22.9KANSAS CITY VORTAC113.2505E

Airport Services

Airframe service: NONE
Powerplant service: NONE

Runway Information

Runway 18/36

Dimensions: 1650 x 60 ft. / 503 x 18 m
Surface: turf, in good condition
RUNWAY 18  RUNWAY 36
Traffic pattern: leftleft
Displaced threshold: 300 ft.100 ft.
Obstructions: 2 ft. road, 20 ft. from runway5 ft. fence

Airport Ownership and Management from official FAA records

Ownership: Privately-owned
Owner: HEART OF AMERICA/ A.J. LEFTWICH
18865 K-16 HIGHWAY, PO BOX 344
MC LOUTH, KS 66054
Phone 913-796-6562
Manager: A.J. LEFTWICH
18865 K-16 HIGHWAY, PO BOX 344
MC LOUTH, KS 66054
Phone 913-796-6562

Airport Operational Statistics

Aircraft based on the field: 1
Ultralights: 1
    

Additional Remarks

ALL AIRCRAFT TRAFFIC CEASES DURING ANY SHOW ACTVTY ON ADJACENT FAIR GNDS.
FOR CD CTC KANSAS CITY ARTCC AT 913-254-8508.

Instrument Procedures

There are no published instrument procedures at 5KS1.

Some nearby airports with instrument procedures:

KLWC - Lawrence Regional Airport (11 nm S)
KFLV - Sherman Army Airfield (17 nm NE)
KTOP - Philip Billard Municipal Airport (20 nm W)
K59 - Amelia Earhart Airport (23 nm N)
KMCI - Kansas City International Airport (24 nm E)
 
Loc | Ops | Rwys | IFR | FBO | Links
Com | Nav | Svcs | Stats | Notes
Area around 5KS1 (Threshing Bee Airport)
 
Road maps at: MapQuest Bing Google
 
Aerial photo
No photo
 
Sectional chart

 
Airport distance calculator
Flying to Threshing Bee Airport? Find the distance to fly.

From to 5KS1

Sunrise and sunset
Times for 24-Jan-2022
 Local
(UTC-6)
 Zulu
(UTC)
Morning civil twilight07:0613:06
Sunrise07:3513:35
Sunset17:3123:31
Evening civil twilight18:0024:00

Current date and time
Zulu (UTC)  24-Jan-2022 14:17:48
Local (UTC-6)  24-Jan-2022 08:17:48
 
METAR
KLWC 
11nm S 
241352Z AUTO 30005KT 10SM CLR 06/M02 A2972 RMK AO1 SLP067 T00561017
KTOP 
21nm W 
241353Z 28008KT 10SM CLR 07/M02 A2973 RMK AO2 SLP069 T00721022
TAF
KTOP 
21nm W 
241120Z 2412/2512 28007KT P6SM OVC150 FM241600 32013KT P6SM SCT150 FM241900 36014G21KT P6SM SCT025 OVC035 FM250000 02011KT P6SM BKN200
KMCI 
23nm E 
241120Z 2412/2512 22008KT P6SM BKN100 FM241600 33015G25KT P6SM BKN040 FM250300 36008KT P6SM FEW040
KFOE 
26nm SW 
241120Z 2412/2512 28008KT P6SM OVC150 FM241600 32013KT P6SM SCT150 FM241900 36015G22KT P6SM SCT025 OVC035 FM250000 02012KT P6SM BKN200
NOTAMs
Click for the latest NOTAMs
NOTAMs are issued by the DoD/FAA and will open in a separate window not controlled by AirNav.

 

 
 

Would you like to see your business listed on this page?

 If your business provides an interesting product or service to pilots, flight crews, aircraft, or users of the Threshing Bee Airport, you should consider listing it here.  To start the listing process, click on the button below
 
Add a business
 

Other Pages about Threshing Bee Airport

Update a link
 
Copyright © AirNav, LLC. All rights reserved. Privacy Policy  Contact